createdAt,value
2017-08-24T00:01:45.148Z,8.80
2017-08-24T00:04:12.747Z,10.00
2017-08-24T00:06:40.530Z,8.50
2017-08-24T00:09:08.087Z,10.43
2017-08-24T00:11:35.590Z,10.60
2017-08-24T00:14:03.479Z,11.80
2017-08-24T00:16:31.083Z,14.57
2017-08-24T00:18:58.697Z,16.97
2017-08-24T00:21:27.009Z,21.40
2017-08-24T00:23:54.774Z,27.20
2017-08-24T00:26:23.107Z,27.93
2017-08-24T00:28:50.684Z,31.93
2017-08-24T00:31:18.595Z,32.50
2017-08-24T00:33:46.094Z,40.30
2017-08-24T00:36:13.653Z,37.20
2017-08-24T00:38:41.207Z,38.77
2017-08-24T00:41:08.717Z,38.60
2017-08-24T00:43:36.279Z,38.67
2017-08-24T00:46:03.759Z,38.33
2017-08-24T00:48:31.544Z,39.17
2017-08-24T00:50:59.007Z,35.30
2017-08-24T00:53:27.330Z,35.50
2017-08-24T00:55:54.817Z,43.10
2017-08-24T00:58:22.418Z,38.10
2017-08-24T01:00:50.172Z,35.77
2017-08-24T01:03:17.787Z,41.60
2017-08-24T01:05:45.267Z,42.63
2017-08-24T01:08:12.749Z,41.10
2017-08-24T01:10:40.205Z,43.17
2017-08-24T01:13:07.733Z,47.80
2017-08-24T01:15:35.198Z,44.93
2017-08-24T01:18:02.855Z,42.13
2017-08-24T01:20:30.432Z,45.00
2017-08-24T01:22:57.918Z,39.10
2017-08-24T01:25:26.243Z,44.33
2017-08-24T01:27:53.840Z,40.57
2017-08-24T01:30:22.478Z,39.50
2017-08-24T01:32:50.108Z,38.97
2017-08-24T01:35:17.722Z,36.67
2017-08-24T01:37:46.054Z,34.10
2017-08-24T01:40:13.611Z,34.00
2017-08-24T01:42:41.143Z,33.17
2017-08-24T01:45:09.627Z,32.97
2017-08-24T01:47:37.412Z,34.47
2017-08-24T01:50:05.276Z,32.23
2017-08-24T01:52:33.526Z,32.70
2017-08-24T01:55:01.140Z,30.67
2017-08-24T01:57:28.743Z,31.93
2017-08-24T01:59:56.411Z,34.07
2017-08-24T02:02:24.003Z,28.37
2017-08-24T02:04:51.514Z,34.80
2017-08-24T02:07:19.045Z,33.93
2017-08-24T02:09:46.568Z,33.90
2017-08-24T02:12:14.981Z,30.30
2017-08-24T02:14:42.574Z,33.63
2017-08-24T02:17:10.926Z,28.70
2017-08-24T02:19:38.453Z,28.93
2017-08-24T02:22:05.964Z,27.83
2017-08-24T02:24:33.559Z,31.40
2017-08-24T02:27:01.120Z,35.80
2017-08-24T02:29:28.630Z,34.17
2017-08-24T02:31:56.176Z,41.50
2017-08-24T02:34:23.713Z,41.90
2017-08-24T02:36:51.298Z,41.00
2017-08-24T02:39:19.354Z,38.23
2017-08-24T02:41:46.862Z,40.10
2017-08-24T02:44:14.611Z,38.70
2017-08-24T02:46:42.402Z,39.63
2017-08-24T02:49:09.951Z,43.90
2017-08-24T02:51:37.660Z,40.63
2017-08-24T02:54:05.167Z,42.43
2017-08-24T02:56:32.886Z,44.97
2017-08-24T02:59:01.217Z,39.40
2017-08-24T03:01:28.846Z,44.07
2017-08-24T03:03:56.451Z,43.03
2017-08-24T03:06:24.010Z,42.00
2017-08-24T03:08:51.574Z,40.43
2017-08-24T03:11:19.223Z,44.57
2017-08-24T03:13:46.675Z,36.50
2017-08-24T03:16:15.203Z,38.80
2017-08-24T03:18:42.931Z,37.17
2017-08-24T03:21:10.509Z,39.60
2017-08-24T03:23:38.820Z,43.70
2017-08-24T03:26:06.360Z,38.10
2017-08-24T03:28:34.747Z,32.83
2017-08-24T03:31:02.321Z,40.97
2017-08-24T03:33:29.804Z,35.93
2017-08-24T03:35:57.418Z,34.90
2017-08-24T03:38:25.701Z,36.37
2017-08-24T03:40:53.360Z,40.83
2017-08-24T03:43:21.273Z,36.73
2017-08-24T03:45:48.893Z,40.30
2017-08-24T03:48:16.523Z,31.23
2017-08-24T03:50:44.793Z,32.90
2017-08-24T03:53:12.386Z,31.00
2017-08-24T03:55:40.734Z,30.80
2017-08-24T03:58:08.183Z,36.20
2017-08-24T04:00:35.653Z,29.53
2017-08-24T04:03:03.215Z,28.27
2017-08-24T04:05:30.902Z,24.57
2017-08-24T04:07:59.115Z,27.60
2017-08-24T04:10:26.698Z,26.87
2017-08-24T04:12:54.332Z,25.70
2017-08-24T04:15:21.923Z,21.70
2017-08-24T04:17:49.463Z,27.80
2017-08-24T04:20:17.032Z,24.77
2017-08-24T04:22:45.282Z,26.77
2017-08-24T04:25:12.868Z,27.43
2017-08-24T04:27:40.438Z,31.53
2017-08-24T04:30:07.928Z,21.33
2017-08-24T04:32:36.250Z,24.63
2017-08-24T04:35:03.986Z,24.07
2017-08-24T04:37:31.544Z,22.57
2017-08-24T04:39:59.095Z,22.77
2017-08-24T04:42:27.334Z,22.20
2017-08-24T04:44:54.890Z,22.53
2017-08-24T04:47:22.456Z,23.17
2017-08-24T04:49:49.912Z,28.00
2017-08-24T04:52:17.415Z,27.07
2017-08-24T04:54:44.974Z,25.13
2017-08-24T04:57:13.355Z,21.70
2017-08-24T04:59:40.842Z,25.73
2017-08-24T05:02:08.354Z,29.87
2017-08-24T05:04:35.987Z,23.70
2017-08-24T05:07:04.352Z,21.87
2017-08-24T05:09:31.923Z,21.83
2017-08-24T05:11:59.415Z,23.17
2017-08-24T05:14:26.871Z,28.20
2017-08-24T05:16:55.150Z,25.30
2017-08-24T05:19:23.364Z,22.83
2017-08-24T05:21:50.845Z,23.03
2017-08-24T05:24:18.513Z,29.50
2017-08-24T05:26:46.011Z,25.97
2017-08-24T05:29:13.510Z,22.83
2017-08-24T05:31:41.275Z,23.73
2017-08-24T05:34:08.785Z,27.13
2017-08-24T05:36:37.043Z,40.40
2017-08-24T05:39:05.390Z,30.00
2017-08-24T05:41:32.901Z,26.20
2017-08-24T05:44:01.221Z,24.87
2017-08-24T05:46:28.814Z,24.07
2017-08-24T05:48:56.355Z,24.70
2017-08-24T05:51:23.971Z,29.40
2017-08-24T05:53:51.615Z,25.60
2017-08-24T05:56:19.192Z,25.50
2017-08-24T05:58:46.652Z,26.97
2017-08-24T06:01:14.257Z,27.93
2017-08-24T06:03:41.762Z,22.53
2017-08-24T06:06:09.348Z,22.87
2017-08-24T06:08:37.090Z,30.07
2017-08-24T06:11:05.455Z,26.97
2017-08-24T06:13:33.814Z,27.33
2017-08-24T06:16:01.365Z,28.97
2017-08-24T06:18:28.995Z,30.27
2017-08-24T06:20:56.516Z,25.70
2017-08-24T06:23:24.049Z,28.33
2017-08-24T06:25:51.532Z,33.83
2017-08-24T06:28:19.230Z,28.07
2017-08-24T06:30:46.792Z,27.57
2017-08-24T06:33:14.273Z,29.53
2017-08-24T06:35:41.779Z,30.30
2017-08-24T06:38:09.283Z,32.70
2017-08-24T06:40:36.788Z,30.57
2017-08-24T06:43:04.253Z,29.60
2017-08-24T06:45:32.545Z,27.27
2017-08-24T06:48:00.005Z,25.07
2017-08-24T06:50:27.503Z,28.00
2017-08-24T06:52:55.012Z,24.73
2017-08-24T06:55:22.517Z,28.33
2017-08-24T06:57:50.086Z,27.43
2017-08-24T07:00:17.970Z,34.00
2017-08-24T07:02:46.037Z,27.07
2017-08-24T07:05:13.514Z,25.53
2017-08-24T07:07:40.994Z,23.77
2017-08-24T07:10:08.435Z,28.10
2017-08-24T07:12:36.705Z,29.90
2017-08-24T07:15:04.283Z,26.80
2017-08-24T07:17:31.846Z,28.53
2017-08-24T07:20:00.174Z,31.87
2017-08-24T07:22:27.676Z,36.03
2017-08-24T07:24:55.176Z,33.30
2017-08-24T07:27:22.782Z,33.83
2017-08-24T07:29:50.401Z,33.77
2017-08-24T07:32:17.869Z,34.30
2017-08-24T07:34:45.355Z,30.70
2017-08-24T07:37:12.936Z,32.23
2017-08-24T07:39:40.445Z,33.83
2017-08-24T07:42:07.982Z,37.20
2017-08-24T07:44:35.500Z,29.47
2017-08-24T07:47:02.972Z,35.20
2017-08-24T07:49:30.471Z,28.07
2017-08-24T07:51:57.988Z,41.33
2017-08-24T07:54:25.597Z,33.00
2017-08-24T07:56:53.201Z,31.70
2017-08-24T07:59:21.105Z,38.20
2017-08-24T08:01:48.582Z,31.87
2017-08-24T08:04:16.227Z,30.93
2017-08-24T08:06:44.039Z,30.10
2017-08-24T08:09:11.501Z,30.47
2017-08-24T08:11:38.958Z,36.00
2017-08-24T08:14:06.541Z,34.50
2017-08-24T08:16:34.053Z,32.30
2017-08-24T08:19:01.527Z,33.67
2017-08-24T08:21:29.084Z,33.97
2017-08-24T08:23:56.710Z,34.80
2017-08-24T08:26:24.372Z,33.93
2017-08-24T08:28:51.884Z,40.10
2017-08-24T08:31:20.277Z,30.37
2017-08-24T08:33:48.034Z,36.60
2017-08-24T08:36:16.322Z,30.53
2017-08-24T08:38:43.812Z,32.33
2017-08-24T08:41:11.324Z,30.10
2017-08-24T08:43:39.614Z,35.63
2017-08-24T08:46:07.123Z,33.03
2017-08-24T08:48:34.616Z,30.13
2017-08-24T08:51:02.127Z,35.43
2017-08-24T08:53:29.802Z,26.83
2017-08-24T08:55:57.337Z,28.00
2017-08-24T08:58:24.994Z,24.57
2017-08-24T09:00:53.440Z,26.20
2017-08-24T09:03:20.995Z,25.47
2017-08-24T09:05:49.905Z,25.60
2017-08-24T09:08:17.348Z,21.93
2017-08-24T09:10:44.842Z,24.40
2017-08-24T09:13:12.459Z,30.57
2017-08-24T09:15:40.025Z,26.60
2017-08-24T09:18:07.650Z,26.17
2017-08-24T09:20:35.199Z,26.50
2017-08-24T09:23:02.980Z,28.00
2017-08-24T09:25:30.637Z,28.80
2017-08-24T09:27:58.299Z,32.30
2017-08-24T09:30:25.839Z,32.43
2017-08-24T09:32:53.308Z,30.40
2017-08-24T09:35:21.350Z,26.10
2017-08-24T09:37:49.198Z,29.10
2017-08-24T09:40:17.244Z,24.50
2017-08-24T09:42:44.766Z,27.87
2017-08-24T09:45:12.391Z,21.83
2017-08-24T09:47:40.817Z,28.23
2017-08-24T09:50:08.681Z,24.93
2017-08-24T09:52:36.159Z,25.83
2017-08-24T09:55:03.633Z,25.23
2017-08-24T09:57:31.721Z,26.57
2017-08-24T09:59:59.195Z,28.03
2017-08-24T10:02:26.755Z,25.53
2017-08-24T10:04:54.485Z,28.47
2017-08-24T10:07:22.062Z,24.40
2017-08-24T10:09:49.618Z,19.83
2017-08-24T10:12:18.043Z,21.67
2017-08-24T10:14:45.551Z,23.10
2017-08-24T10:17:13.071Z,23.30
2017-08-24T10:19:40.627Z,23.93
2017-08-24T10:22:08.238Z,28.20
2017-08-24T10:24:35.858Z,30.63
2017-08-24T10:27:03.353Z,26.87
2017-08-24T10:29:30.928Z,27.73
2017-08-24T10:31:58.483Z,29.10
2017-08-24T10:34:26.093Z,26.17
2017-08-24T10:36:53.602Z,22.70
2017-08-24T10:39:22.227Z,23.63
2017-08-24T10:41:50.681Z,25.73
2017-08-24T10:44:18.241Z,23.57
2017-08-24T10:46:45.746Z,24.93
2017-08-24T10:49:13.290Z,26.57
2017-08-24T10:51:40.792Z,25.73
2017-08-24T10:54:08.276Z,26.60
2017-08-24T10:56:36.543Z,25.10
2017-08-24T10:59:04.030Z,27.30
2017-08-24T11:01:31.749Z,34.57
2017-08-24T11:03:59.372Z,28.77
2017-08-24T11:06:27.032Z,26.83
2017-08-24T11:08:54.645Z,28.90
2017-08-24T11:11:22.136Z,25.50
2017-08-24T11:13:49.882Z,22.67
2017-08-24T11:16:17.425Z,25.10
2017-08-24T11:18:45.045Z,22.67
2017-08-24T11:21:12.591Z,21.73
2017-08-24T11:23:40.159Z,25.90
2017-08-24T11:26:07.984Z,27.10
2017-08-24T11:28:36.259Z,27.30
2017-08-24T11:31:03.742Z,33.07
2017-08-24T11:33:32.161Z,22.77
2017-08-24T11:35:59.762Z,24.97
2017-08-24T11:38:27.549Z,23.27
2017-08-24T11:40:55.023Z,28.47
2017-08-24T11:43:22.708Z,24.90
2017-08-24T11:45:50.271Z,24.03
2017-08-24T11:48:17.825Z,28.67
2017-08-24T11:50:45.306Z,25.13
2017-08-24T11:53:12.950Z,27.53
2017-08-24T11:55:40.649Z,26.13
2017-08-24T11:58:08.239Z,25.87
2017-08-24T12:00:35.767Z,25.57
2017-08-24T12:03:03.352Z,30.97
2017-08-24T12:05:31.253Z,25.10
2017-08-24T12:07:58.900Z,35.30
2017-08-24T12:10:26.580Z,29.00
2017-08-24T12:12:54.162Z,22.50
2017-08-24T12:15:21.781Z,21.33
2017-08-24T12:17:49.297Z,24.13
2017-08-24T12:20:17.590Z,26.50
2017-08-24T12:22:45.783Z,27.83
2017-08-24T12:25:13.295Z,22.17
2017-08-24T12:27:40.849Z,23.77
2017-08-24T12:30:08.307Z,22.83
2017-08-24T12:32:35.866Z,24.20
2017-08-24T12:35:03.329Z,25.90
2017-08-24T12:37:30.982Z,23.23
2017-08-24T12:39:58.476Z,22.57
2017-08-24T12:42:26.190Z,24.63
2017-08-24T12:44:53.752Z,22.30
2017-08-24T12:47:21.645Z,26.93
2017-08-24T12:49:49.208Z,25.00
2017-08-24T12:52:16.944Z,26.30
2017-08-24T12:54:44.530Z,21.40
2017-08-24T12:57:11.979Z,22.57
2017-08-24T12:59:39.547Z,20.63
2017-08-24T13:02:07.003Z,20.17
2017-08-24T13:04:34.594Z,21.03
2017-08-24T13:07:02.098Z,20.07
2017-08-24T13:09:29.586Z,18.73
2017-08-24T13:11:57.081Z,19.00
2017-08-24T13:14:24.756Z,19.83
2017-08-24T13:16:52.391Z,20.20
2017-08-24T13:19:20.176Z,21.47
2017-08-24T13:21:47.740Z,17.27
2017-08-24T13:24:15.273Z,17.30
2017-08-24T13:26:42.915Z,17.83
2017-08-24T13:29:11.138Z,17.40
2017-08-24T13:31:38.631Z,18.00
2017-08-24T13:34:06.099Z,16.47
2017-08-24T13:36:33.921Z,15.10
2017-08-24T13:39:01.576Z,14.67
2017-08-24T13:41:29.114Z,18.13
2017-08-24T13:43:57.370Z,16.97
2017-08-24T13:46:24.931Z,18.57
2017-08-24T13:48:53.310Z,15.17
2017-08-24T13:51:20.863Z,17.90
2017-08-24T13:53:48.431Z,21.70
2017-08-24T13:56:15.990Z,15.87
2017-08-24T13:58:43.766Z,17.30
2017-08-24T14:01:11.385Z,15.80
2017-08-24T14:03:38.866Z,17.80
2017-08-24T14:06:06.885Z,12.73
2017-08-24T14:08:34.376Z,17.33
2017-08-24T14:11:02.236Z,14.00
2017-08-24T14:13:29.846Z,11.83
2017-08-24T21:49:39.196Z,11.80
